Francisco Oliveira

Chief Scout - Moreirense
13 Jan 2028
Thursday
Process

Personality

Adaptability (11) Ambition (5) Controversy (13) Loyalty (19) Pressure (4) Professionalism (5) Sportsmanship (7) Temperament (2)

Profile

Coaching Style Democratic
License Continental B
Determination 4
Man Management 12
Motivating 7
Discipline 12
Job Satisfaction
100%
Fatigue
0%
Role Chief Scout
Wage 52.7K p/w
Contract 14.03.2028

Performance

Behaviour Good
Training Effectiveness
49%
Player Development
30%
Injury Prevention
30%
Tactical Implementation
50%

Recent Events

Contract negotiation started now
Attended a recruitment meeting now
Attended a recruitment meeting now
Recommended a transfer target now
Recommended a transfer target now
Recommended a transfer target now
Recommended a transfer target now
Recommended a transfer target now

Currently Monitoring

216
Player Club Status Ability Confidence Watched Last Observed Latest Vote
Djé Santa Clara Active 120 / 114 76% 1 10.01.2028 Approve
Olívio Tomé Benfica Active 119 / 131 76% 1 06.01.2028 Approve
Mao Hosoya Everton Active 134 / 135 67% 1 01.01.2028 Approve
Santiago Hezze Chaves Active 132 / 133 62% 1 01.01.2028 Approve
Kerim Alajbegović Modena Active 133 / 145 40% 1 16.12.2027 -
Archie Gray Derby County Active 153 / 148 40% 1 16.12.2027 -
Kauã Elias Anderlecht Active 134 / 149 40% 1 11.12.2027 -
Yago Souza Atletico Goianiense Active 107 / 119 40% 1 10.12.2027 -
Maren Kefas Plateau United Active 91 / 82 40% 1 10.12.2027 -
Oscar Otero Atletico Venezuela Active 104 / 96 40% 1 10.12.2027 -
Mateus Mide Porto Active 108 / 118 40% 1 08.12.2027 -
André Miranda Porto Active 110 / 114 40% 1 08.12.2027 -
Josh Nichols Tranmere Rovers Active 123 / 125 40% 1 08.12.2027 -
Caleb Yirenkyi Coventry City Active 139 / 148 40% 2 06.12.2027 -
Bryan Caicedo Leones Active 103 / 97 40% 1 06.12.2027 -
Tiziano Cabrera Central Norte Active 88 / 94 40% 1 06.12.2027 -
Juan Diego Perdomo Depor Active 85 / 86 40% 1 30.08.2027 -
Nicolas Sport Recife Active 99 / 116 40% 1 30.08.2027 -
Ricky Atletico Venezuela Active 102 / 99 40% 1 30.08.2027 -
Mbekezeli Mbokazi Chicago Fire Active 131 / 139 40% 1 24.08.2027 -
Bahia Criciuma Active 112 / 121 40% 1 24.08.2027 -
Mauro Carrizo Atlético Tucumán Active 105 / 105 40% 1 24.08.2027 -
Paulité Lusitânia Lourosa Active 111 / 116 76% 1 16.08.2027 Approve
Jesús Rodríguez Como Active 146 / 146 40% 1 03.06.2027 -
Rodrigo Mora AS Roma Active 135 / 137 40% 1 03.06.2027 -
Gianluca Prestianni Benfica Active 131 / 150 40% 1 03.06.2027 -
Dion Beljo Standard Liege Negotiating 131 / 132 66% 1 01.06.2027 Approve
Marezi Portsmouth Active 121 / 129 40% 2 30.05.2027 -
Tom Cannon Sheffield United Active 132 / 136 40% 5 30.05.2027 -
Dominic Calvert-Lewin Leeds United Active 138 / 151 40% 4 30.05.2027 -
Morgan Whittaker Middlesbrough Active 128 / 124 40% 4 28.05.2027 -
Hazeem Bakre Crawley Town Active 78 / 84 40% 1 28.05.2027 -
Calum Agius Crewe Alexandra Active 89 / 100 40% 1 28.05.2027 -
Jason Knight Bristol City Active 129 / 129 40% 1 28.05.2027 -
Dango Ouattara Brentford Active 144 / 136 40% 7 25.05.2027 -
Patson Daka Leicester City Active 131 / 115 40% 5 25.05.2027 -
Mees Rijks Bristol Rovers Active 112 / 107 40% 2 24.05.2027 -
Christian Saydee Wigan Athletic Active 117 / 121 40% 1 24.05.2027 -
Gustavo Silva Vitoria Guimaraes Active 130 / 124 40% 9 22.05.2027 -
Elijah Adebayo Luton Town Active 131 / 129 40% 4 22.05.2027 -
Tommy Conway Middlesbrough Active 127 / 138 40% 3 21.05.2027 -
Petar Musa Adana Demirspor Active 139 / 146 40% 3 20.05.2027 -
Joe Gelhardt Hull City Active 138 / 128 40% 2 20.05.2027 -
Giacomo Raspadori Atalanta Active 149 / 154 40% 11 19.05.2027 -
Vinícius Lopes Santa Clara Active 119 / 124 40% 3 19.05.2027 -
Jayden Addai Como Active 129 / 131 40% 2 18.05.2027 -
Tomás Peixoto Porto Active 92 / 81 40% 1 18.05.2027 -
Ismaïla Sarr Crystal Palace Active 147 / 148 40% 4 16.05.2027 -
Georginio Rutter Brighton Active 154 / 152 40% 12 15.05.2027 -
Roberto Fernández Braga Active 150 / 142 40% 13 15.05.2027 Monitor
Zé Leite Leixões Active 123 / 111 40% 5 15.05.2027 -
Callum O'Hare Sheffield United Active 132 / 136 40% 5 15.05.2027 -
Keinan Davis Udinese Active 141 / 130 40% 1 15.05.2027 -
Ollie Tanner Cardiff City Active 111 / 112 40% 2 14.05.2027 -
Ali Ahmed Norwich City Active 129 / 116 40% 2 14.05.2027 -
Oli McBurnie Hull City Active 132 / 134 40% 6 13.05.2027 -
Will Lankshear Middlesbrough Active 120 / 130 40% 7 11.05.2027 -
Quinten Timber Crystal Palace Active 156 / 149 40% 2 11.05.2027 -
Thiago Brentford Active 146 / 145 40% 3 11.05.2027 -
Kasey McAteer Ipswich Town Active 131 / 124 40% 2 11.05.2027 -
Stephen Humphrys Bradford City Active 114 / 103 40% 1 11.05.2027 -
Derensili Sanches Fernandes Huddersfield Town Active 131 / 126 40% 2 10.05.2027 -
André Clovis Leiria Active 114 / 115 40% 3 07.05.2027 -
Yousef Salech Cardiff City Active 128 / 135 40% 5 07.05.2027 -
Richard Koné Queens Park Rangers Active 126 / 131 40% 4 05.05.2027 -
Aune Heggebø West Bromwich Albion Active 129 / 123 40% 5 05.05.2027 -
Sam Nombe Milton Keynes Dons Active 107 / 108 40% 2 05.05.2027 -
Othmane Maamma Watford Active 121 / 128 40% 3 04.05.2027 -
Zian Flemming Ipswich Town Active 127 / 133 40% 2 04.05.2027 -
Lorougnon Gohi Académico de Viseu Active 116 / 114 40% 1 04.05.2027 -
Pau Víctor AVS Active 140 / 136 40% 1 03.05.2027 -
Dom Ballard Leyton Orient Active 121 / 128 40% 8 01.05.2027 -
Tyrese Campbell Sheffield United Active 130 / 129 40% 3 28.04.2027 -
Stevan Manuel Benfica Active 101 / 109 40% 1 27.04.2027 -
Lovro Zvonarek Estrela da Amadora Active 116 / 122 40% 1 27.04.2027 -
Scott Twine Bristol City Active 122 / 131 40% 2 24.04.2027 -
Naïs Djouahra Arouca Active 120 / 135 40% 1 24.04.2027 -
Lewis Morgan SuperSport United Active 118 / 117 40% 8 19.04.2027 -
Mohamed-Ali Cho Hull City Active 134 / 139 40% 2 19.04.2027 -
Luis Quintero Torreense Active 129 / 131 40% 2 18.04.2027 -
Finn Azaz Southampton Active 131 / 132 40% 3 18.04.2027 -
Welington Southampton Active 134 / 127 40% 1 18.04.2027 -
Figueiredo Alverca Active 134 / 123 40% 6 15.04.2027 -
Kwadwo Baah Watford Active 131 / 136 40% 2 15.04.2027 -
Cian Ashford Cardiff City Active 116 / 114 40% 2 14.04.2027 -
Che Adams Torino Active 141 / 147 40% 1 09.04.2027 -
Aaron Collins Milton Keynes Dons Active 122 / 116 40% 1 08.04.2027 -
Kevin Fulham Active 145 / 158 40% 2 06.04.2027 -
Manu Pozo Torreense Active 115 / 132 40% 3 06.04.2027 -
Diego Rossi Monterrey Active 139 / 123 40% 4 06.04.2027 -
Mikkel Damsgaard Brentford Active 146 / 149 40% 4 05.04.2027 -
Hugo Cuypers Monterrey Active 130 / 139 40% 3 01.04.2027 -
Ronan Hale Gillingham Active 115 / 109 40% 2 01.04.2027 -
Víctor Gómez Braga Active 143 / 147 40% 6 29.03.2027 -
Makan Aïko Tondela Active 121 / 118 40% 3 29.03.2027 -
Tom Fellows Southampton Active 131 / 125 40% 3 28.03.2027 -
Matt O'Riley Brighton Active 145 / 147 40% 7 25.03.2027 -
Themba Ngcobo SuperSport United Active 113 / 132 40% 3 23.03.2027 -
Zeki Amdouni Burnley Active 139 / 124 40% 1 23.03.2027 -
Ozziel Herrera Tigres Active 127 / 119 40% 9 22.03.2027 -
Chuchu Ramírez Nacional Active 139 / 117 40% 4 22.03.2027 -
Luis Vázquez Birmingham Active 125 / 119 40% 3 18.03.2027 -
Óscar Mingueza Crystal Palace Active 153 / 153 40% 3 16.03.2027 -
Jack McGlynn Stoke City Active 128 / 135 40% 1 16.03.2027 -
Alfonso Trezza Arouca Active 119 / 127 40% 1 14.03.2027 -
Edarlyn Reyes Arsenal Tula Active 118 / 98 40% 1 12.03.2027 -
Moussa Dembélé CR Belouizdad Active 129 / 129 40% 1 11.03.2027 -
Marcelo Allende Mamelodi Sundowns Active 126 / 143 40% 6 10.03.2027 -
Tshepang Moremi Orlando Pirates Active 127 / 125 40% 4 10.03.2027 -
Duk Atlas Active 125 / 112 40% 1 10.03.2027 -
Evidence Makgopa Orlando Pirates Active 122 / 104 40% 2 07.03.2027 -
Santi García Gil Vicente Active 133 / 140 40% 2 06.03.2027 -
André Silva Tondela Active 123 / 131 40% 5 06.03.2027 -
Jhojan Julio Queretaro Active 126 / 118 40% 1 03.03.2027 -
Wilson Isidor Sunderland Active 136 / 141 40% 1 02.03.2027 -
Soufiane Rahimi Guadalajara Active 148 / 134 40% 1 22.02.2027 -
Romelu Castagne KV Oostende Active 137 / 125 40% 2 15.02.2027 -
Dawda Camara Alverca Active 118 / 109 40% 1 15.02.2027 -
Adriano Bertaccini Anderlecht Active 133 / 125 40% 1 10.02.2027 -
Lucas Di Yorio Santos Laguna Active 111 / 110 40% 1 09.02.2027 -
Ilyas Ansah Hull City Active 128 / 128 40% 1 02.02.2027 -
Adnan Courtois KV Oostende Active 141 / 133 40% 1 01.02.2027 -
Tariq Lamptey Queens Park Rangers Active 133 / 131 40% 1 25.01.2027 -
Yehor Yarmoliuk Brentford Active 146 / 156 40% 1 25.01.2027 -
Rômulo Tigres Active 130 / 137 40% 1 25.01.2027 -
Ilay Camara Anderlecht Active 137 / 131 40% 1 31.12.2026 -
Zak Swanson Bradford City Active 113 / 109 40% 1 31.12.2026 -
Mduduzi Shabalala Kaizer Chiefs Active 117 / 122 40% 1 30.12.2026 -
Ruben van Bommel Ferencvaros Active 141 / 129 40% 1 29.12.2026 -
Assane Diao Lazio Active 146 / 137 40% 2 28.12.2026 -
Leo Castledine Middlesbrough Active 120 / 139 40% 1 28.12.2026 -
Diego Lainez Tigres Active 127 / 115 40% 7 25.12.2026 -
Jack Rudoni Coventry City Active 127 / 136 40% 4 25.12.2026 -
Endrick Real Madrid Active 147 / 161 40% 3 24.12.2026 -
Senny Mayulu Paris Saint-Germain Active 137 / 154 40% 1 24.12.2026 -
Daniel Kyerewaa Reading Active 110 / 119 40% 1 23.12.2026 -
Amine Adli Bournemouth Active 145 / 135 40% 1 21.12.2026 -
Mandla Erasmus SuperSport United Active 110 / 131 40% 1 21.12.2026 -
Gustavo Ferreira Benfica Active 87 / 95 40% 1 19.12.2026 -
Gabriel Melo Dugopolje Active 73 / 103 40% 2 15.12.2026 -
Leon Grgić Sturm Graz Active 117 / 125 40% 1 11.12.2026 -
Toni Tamarit Alverca Active 112 / 109 40% 2 08.12.2026 -
Rico Lewis Manchester City Active 144 / 157 40% 2 05.12.2026 -
Yan Diomandé Real Madrid Active 145 / 146 40% 1 04.12.2026 -
Reda Khadra Qarabag Active 138 / 142 40% 1 02.12.2026 -
Jordan van der Gaag Leiria Active 119 / 104 40% 2 27.11.2026 -
Mateus Mané Manchester United Active 124 / 134 40% 4 26.11.2026 -
Noni Madueke Arsenal Active 149 / 164 40% 2 26.11.2026 -
Pinna Fortaleza Active 86 / 93 40% 1 23.11.2026 -
Jonás Luna Santa Clara Active 116 / 119 40% 1 22.11.2026 -
David Kalokoh Ajax Active 113 / 115 40% 1 22.11.2026 -
Adam Wharton Crystal Palace Active 146 / 162 40% 2 17.11.2026 -
Jadon Sancho Manchester United Active 155 / 145 40% 1 17.11.2026 -
Christian Krasnodar Active 145 / 123 40% 3 16.11.2026 -
Isaiah Jones Luton Town Active 121 / 125 40% 1 16.11.2026 -
Rocco Vata Watford Active 121 / 118 40% 4 15.11.2026 -
Vivaldo Semedo Watford Active 114 / 124 40% 1 14.11.2026 -
Mayckel Lahdo Malmo FF Active 125 / 112 40% 1 12.11.2026 -
Pedro Porro Tottenham Active 146 / 154 40% 4 10.11.2026 -
Mario Dorgeles Braga Active 125 / 132 40% 1 09.11.2026 -
Iwan Morgan Grimsby Town Active 101 / 115 40% 5 08.11.2026 -
Ezekiel Kwame Alladoh Philadelphia Union Active 113 / 112 40% 1 08.11.2026 -
Darren Yapi Colorado Rapids Active 97 / 125 40% 1 08.11.2026 -
William Gomes Porto Active 137 / 154 40% 1 05.11.2026 -
Félix Lemaréchal Club Brugge Active 137 / 145 40% 2 03.11.2026 -
Ryan Sessegnon Fulham Active 144 / 142 40% 2 02.11.2026 -
Stanley Mills Oxford United Active 125 / 120 40% 1 02.11.2026 -
Xavi Simons Tottenham Active 153 / 156 40% 1 01.11.2026 -
Tomás O'Connor Gimnasia y Esgrima Active 123 / 119 40% 3 30.10.2026 -
Benjamin Kanurić SV Ried Active 110 / 118 40% 1 30.10.2026 -
Soma Anzai FC Tokyo Active 122 / 103 40% 4 28.10.2026 -
Beni Jetour Felgueiras Active 85 / 90 30% 1 / 1m 28.10.2026 -
Yeremy Pino Crystal Palace Active 143 / 138 40% 1 28.10.2026 -
Alan Lescano Argentinos Juniors Active 125 / 134 40% 1 25.10.2026 -
Santiago Rodríguez Columbus Crew Active 133 / 133 40% 2 24.10.2026 -
Gonzalo Fulham Active 138 / 140 40% 1 23.10.2026 -
Carlos Vicente Birmingham Active 147 / 132 40% 1 23.10.2026 -
Santiago Montiel Independiente Active 129 / 123 40% 2 22.10.2026 -
Tristan Degreef Anderlecht Active 118 / 120 40% 1 22.10.2026 -
Youssoufa Moukoko FC Copenhagen Active 114 / 124 40% 1 21.10.2026 -
Hassan Beja AFC Leopards Active 82 / 77 40% 1 21.10.2026 -
Márcio Mendes Pandurii Active 122 / 120 40% 1 21.10.2026 -
Patrick Preciado Deportivo Pasto Active 104 / 118 40% 1 18.10.2026 -
Ezequiel Bullaude Santos Laguna Active 116 / 109 40% 1 16.10.2026 -
De Lucca Rapid Wien Active 122 / 113 40% 2 15.10.2026 -
Alexis Cuello San Lorenzo Active 125 / 120 40% 1 14.10.2026 -
Matías Fernández Independiente Rivadavia Active 125 / 118 40% 1 13.10.2026 -
Antonio Galeano Remo Stars Active 126 / 119 40% 1 07.10.2026 -
Tyler Adams Bournemouth Active 155 / 140 40% 3 05.10.2026 -
Joaquín Gho Argentinos Juniors Active 123 / 124 40% 1 05.10.2026 -
Riqui Puig LA Galaxy Active 127 / 117 40% 2 04.10.2026 -
Marco Pašalić Orlando City Active 126 / 134 40% 1 04.10.2026 -
Anton Stach Leeds United Active 155 / 136 40% 1 02.10.2026 -
Johan Martínez Deportivo Cali Active 114 / 122 40% 1 30.09.2026 -
Callum Hudson-Odoi Nottingham Forest Active 144 / 142 40% 1 29.09.2026 -
Joaquín Pereyra Minnesota United FC Active 122 / 114 40% 1 27.09.2026 -
Riley McGree Middlesbrough Active 129 / 138 40% 1 26.09.2026 -
Rafik Guitane Estoril Praia Active 138 / 127 40% 1 26.09.2026 -
Griffin Yow New England Revolution Active 128 / 134 40% 1 24.09.2026 -
Victor Froholdt Porto Active 147 / 171 40% 1 24.09.2026 -
Lukas Zuccarello Vasco da Gama Active 101 / 108 40% 1 24.09.2026 -
Alexei Dominguez Pachuca Active 111 / 93 40% 1 21.09.2026 -
Roméo Beney Famalicao Active 109 / 124 40% 1 20.09.2026 -
Arthur Maron São Paulo Active 95 / 95 40% 1 18.09.2026 -
Renzo Machado Liverpool Montevideo Active 112 / 119 40% 1 17.09.2026 -
Rodrigo González Mitre Active 115 / 116 40% 1 14.09.2026 -
Nico O'Reilly Manchester City Active 152 / 148 40% 1 14.09.2026 -
Tiago Palacios Estudiantes Active 128 / 134 40% 1 11.09.2026 -
Jan Carlos Ángulo Deportes Tolima Active 119 / 119 40% 1 11.09.2026 -
Jahkeele Marshall-Rutty New York Red Bulls Active 121 / 131 40% 1 11.09.2026 -
Leandro Lozano Boca Juniors Active 130 / 134 40% 1 11.09.2026 -
Amin Boudri Los Angeles Football Club Active 114 / 140 40% 1 09.09.2026 -
Marquinhos Spartak Moscow Active 130 / 143 40% 1 08.09.2026 -
Conrad Wallem Austria Wien Active 132 / 133 40% 1 08.09.2026 -
Juan Pablo Domínguez Leon Active 136 / 110 40% 1 07.09.2026 -
Fidel Ambríz Monterrey Active 137 / 131 40% 1 07.09.2026 -